sensor_id;sensor_type;location;lat;lon;timestamp;P1;durP1;ratioP1;P2;durP2;ratioP2
19209;SDS011;9738;51.654;14.238;2022-07-11T00:01:03;0.73;;;0.43;;
19209;SDS011;9738;51.654;14.238;2022-07-11T00:03:29;0.30;;;0.30;;
19209;SDS011;9738;51.654;14.238;2022-07-11T00:05:55;1.03;;;0.70;;
19209;SDS011;9738;51.654;14.238;2022-07-11T00:08:21;0.70;;;0.50;;
19209;SDS011;9738;51.654;14.238;2022-07-11T00:10:47;2.57;;;0.60;;
19209;SDS011;9738;51.654;14.238;2022-07-11T00:13:13;1.07;;;0.30;;
19209;SDS011;9738;51.654;14.238;2022-07-11T00:15:39;0.90;;;0.37;;
19209;SDS011;9738;51.654;14.238;2022-07-11T00:18:05;0.60;;;0.60;;
19209;SDS011;9738;51.654;14.238;2022-07-11T00:20:31;4.50;;;0.87;;
19209;SDS011;9738;51.654;14.238;2022-07-11T00:22:57;0.23;;;0.23;;
19209;SDS011;9738;51.654;14.238;2022-07-11T00:25:22;0.93;;;0.30;;
19209;SDS011;9738;51.654;14.238;2022-07-11T00:27:49;0.20;;;0.20;;
19209;SDS011;9738;51.654;14.238;2022-07-11T00:30:14;0.30;;;0.30;;
19209;SDS011;9738;51.654;14.238;2022-07-11T00:32:41;2.50;;;0.93;;
19209;SDS011;9738;51.654;14.238;2022-07-11T00:35:08;1.70;;;0.60;;
19209;SDS011;9738;51.654;14.238;2022-07-11T00:37:34;2.60;;;0.67;;
19209;SDS011;9738;51.654;14.238;2022-07-11T00:39:59;1.13;;;0.50;;
19209;SDS011;9738;51.654;14.238;2022-07-11T00:42:26;0.97;;;0.60;;
19209;SDS011;9738;51.654;14.238;2022-07-11T00:44:52;5.90;;;0.83;;
19209;SDS011;9738;51.654;14.238;2022-07-11T00:47:17;0.43;;;0.43;;
19209;SDS011;9738;51.654;14.238;2022-07-11T00:49:44;0.60;;;0.60;;
19209;SDS011;9738;51.654;14.238;2022-07-11T00:52:10;0.40;;;0.40;;
19209;SDS011;9738;51.654;14.238;2022-07-11T00:54:36;0.37;;;0.37;;
19209;SDS011;9738;51.654;14.238;2022-07-11T00:57:02;0.60;;;0.60;;
19209;SDS011;9738;51.654;14.238;2022-07-11T00:59:29;0.67;;;0.50;;
19209;SDS011;9738;51.654;14.238;2022-07-11T01:01:55;5.83;;;0.30;;
19209;SDS011;9738;51.654;14.238;2022-07-11T01:04:21;1.17;;;0.80;;
19209;SDS011;9738;51.654;14.238;2022-07-11T01:06:47;0.97;;;0.50;;
19209;SDS011;9738;51.654;14.238;2022-07-11T01:09:13;2.70;;;0.90;;
19209;SDS011;9738;51.654;14.238;2022-07-11T01:11:40;0.70;;;0.70;;
19209;SDS011;9738;51.654;14.238;2022-07-11T01:14:05;0.53;;;0.53;;
19209;SDS011;9738;51.654;14.238;2022-07-11T01:16:31;2.10;;;1.00;;
19209;SDS011;9738;51.654;14.238;2022-07-11T01:18:58;0.37;;;0.37;;
19209;SDS011;9738;51.654;14.238;2022-07-11T01:21:24;0.70;;;0.60;;
19209;SDS011;9738;51.654;14.238;2022-07-11T01:23:52;0.60;;;0.60;;
19209;SDS011;9738;51.654;14.238;2022-07-11T01:26:20;1.50;;;0.63;;
19209;SDS011;9738;51.654;14.238;2022-07-11T01:28:46;0.60;;;0.60;;
19209;SDS011;9738;51.654;14.238;2022-07-11T01:31:12;0.40;;;0.40;;
19209;SDS011;9738;51.654;14.238;2022-07-11T01:33:39;1.83;;;1.00;;
19209;SDS011;9738;51.654;14.238;2022-07-11T01:36:06;0.87;;;0.73;;
19209;SDS011;9738;51.654;14.238;2022-07-11T01:38:32;2.20;;;0.77;;
19209;SDS011;9738;51.654;14.238;2022-07-11T01:40:58;0.77;;;0.40;;
19209;SDS011;9738;51.654;14.238;2022-07-11T01:43:24;2.43;;;0.87;;
19209;SDS011;9738;51.654;14.238;2022-07-11T01:45:53;0.77;;;0.77;;
19209;SDS011;9738;51.654;14.238;2022-07-11T01:48:20;0.50;;;0.50;;
19209;SDS011;9738;51.654;14.238;2022-07-11T01:50:46;2.53;;;1.37;;
19209;SDS011;9738;51.654;14.238;2022-07-11T01:53:13;1.63;;;1.53;;
19209;SDS011;9738;51.654;14.238;2022-07-11T01:55:39;4.07;;;1.00;;
19209;SDS011;9738;51.654;14.238;2022-07-11T01:58:05;4.43;;;0.80;;
19209;SDS011;9738;51.654;14.238;2022-07-11T02:00:31;4.10;;;1.00;;
19209;SDS011;9738;51.654;14.238;2022-07-11T02:02:57;0.40;;;0.40;;
19209;SDS011;9738;51.654;14.238;2022-07-11T02:05:23;1.30;;;0.70;;
19209;SDS011;9738;51.654;14.238;2022-07-11T02:07:49;1.73;;;0.83;;
19209;SDS011;9738;51.654;14.238;2022-07-11T02:10:34;1.27;;;0.50;;
19209;SDS011;9738;51.654;14.238;2022-07-11T02:13:00;2.20;;;0.73;;
19209;SDS011;9738;51.654;14.238;2022-07-11T02:15:26;1.43;;;0.70;;
19209;SDS011;9738;51.654;14.238;2022-07-11T02:17:54;7.47;;;1.23;;
19209;SDS011;9738;51.654;14.238;2022-07-11T02:20:20;1.60;;;1.23;;
19209;SDS011;9738;51.654;14.238;2022-07-11T02:22:46;7.23;;;4.17;;
19209;SDS011;9738;51.654;14.238;2022-07-11T02:25:12;5.80;;;2.57;;
19209;SDS011;9738;51.654;14.238;2022-07-11T02:27:38;7.73;;;4.17;;
19209;SDS011;9738;51.654;14.238;2022-07-11T02:30:04;6.40;;;4.03;;
19209;SDS011;9738;51.654;14.238;2022-07-11T02:32:31;2.23;;;1.23;;
19209;SDS011;9738;51.654;14.238;2022-07-11T02:34:57;3.87;;;0.90;;
19209;SDS011;9738;51.654;14.238;2022-07-11T02:37:22;6.43;;;3.07;;
19209;SDS011;9738;51.654;14.238;2022-07-11T02:39:49;3.43;;;2.43;;
19209;SDS011;9738;51.654;14.238;2022-07-11T02:42:14;6.80;;;3.70;;
19209;SDS011;9738;51.654;14.238;2022-07-11T02:44:40;11.23;;;3.57;;
19209;SDS011;9738;51.654;14.238;2022-07-11T02:47:07;4.00;;;2.30;;
19209;SDS011;9738;51.654;14.238;2022-07-11T02:49:32;3.70;;;2.00;;
19209;SDS011;9738;51.654;14.238;2022-07-11T02:51:58;2.50;;;1.80;;
19209;SDS011;9738;51.654;14.238;2022-07-11T02:54:25;3.30;;;1.87;;
19209;SDS011;9738;51.654;14.238;2022-07-11T02:56:51;1.57;;;1.10;;
19209;SDS011;9738;51.654;14.238;2022-07-11T02:59:17;1.33;;;0.70;;
19209;SDS011;9738;51.654;14.238;2022-07-11T03:01:43;3.13;;;1.10;;
19209;SDS011;9738;51.654;14.238;2022-07-11T03:04:09;2.13;;;1.03;;
19209;SDS011;9738;51.654;14.238;2022-07-11T03:06:35;0.80;;;0.80;;
19209;SDS011;9738;51.654;14.238;2022-07-11T03:09:02;2.70;;;0.97;;
19209;SDS011;9738;51.654;14.238;2022-07-11T03:11:28;0.80;;;0.80;;
19209;SDS011;9738;51.654;14.238;2022-07-11T03:13:53;1.87;;;0.70;;
19209;SDS011;9738;51.654;14.238;2022-07-11T03:16:20;1.80;;;0.87;;
19209;SDS011;9738;51.654;14.238;2022-07-11T03:18:45;3.90;;;0.90;;
19209;SDS011;9738;51.654;14.238;2022-07-11T03:21:11;1.60;;;0.77;;
19209;SDS011;9738;51.654;14.238;2022-07-11T03:23:37;1.50;;;1.13;;
19209;SDS011;9738;51.654;14.238;2022-07-11T03:26:03;1.37;;;1.07;;
19209;SDS011;9738;51.654;14.238;2022-07-11T03:28:29;0.70;;;0.70;;
19209;SDS011;9738;51.654;14.238;2022-07-11T03:30:55;1.23;;;1.17;;
19209;SDS011;9738;51.654;14.238;2022-07-11T03:33:21;5.13;;;1.30;;
19209;SDS011;9738;51.654;14.238;2022-07-11T03:35:47;2.93;;;1.07;;
19209;SDS011;9738;51.654;14.238;2022-07-11T03:38:17;2.87;;;1.27;;
19209;SDS011;9738;51.654;14.238;2022-07-11T03:40:44;1.20;;;0.73;;
19209;SDS011;9738;51.654;14.238;2022-07-11T03:43:10;0.80;;;0.80;;
19209;SDS011;9738;51.654;14.238;2022-07-11T03:45:36;6.37;;;0.70;;
19209;SDS011;9738;51.654;14.238;2022-07-11T03:48:03;6.37;;;1.00;;
19209;SDS011;9738;51.654;14.238;2022-07-11T03:50:29;0.70;;;0.70;;
19209;SDS011;9738;51.654;14.238;2022-07-11T03:52:56;2.37;;;1.13;;
19209;SDS011;9738;51.654;14.238;2022-07-11T03:55:22;2.87;;;1.20;;
19209;SDS011;9738;51.654;14.238;2022-07-11T03:57:48;6.70;;;0.97;;
19209;SDS011;9738;51.654;14.238;2022-07-11T04:00:14;1.30;;;0.80;;
19209;SDS011;9738;51.654;14.238;2022-07-11T04:02:40;1.13;;;0.93;;
19209;SDS011;9738;51.654;14.238;2022-07-11T04:05:06;6.00;;;1.30;;
19209;SDS011;9738;51.654;14.238;2022-07-11T04:07:32;1.70;;;0.80;;
19209;SDS011;9738;51.654;14.238;2022-07-11T04:09:58;0.77;;;0.77;;
19209;SDS011;9738;51.654;14.238;2022-07-11T04:12:24;1.43;;;1.33;;
19209;SDS011;9738;51.654;14.238;2022-07-11T04:14:50;4.13;;;1.73;;
19209;SDS011;9738;51.654;14.238;2022-07-11T04:17:16;5.80;;;1.03;;
19209;SDS011;9738;51.654;14.238;2022-07-11T04:19:42;9.87;;;1.40;;
19209;SDS011;9738;51.654;14.238;2022-07-11T04:22:11;0.67;;;0.67;;
19209;SDS011;9738;51.654;14.238;2022-07-11T04:24:37;4.00;;;1.00;;
19209;SDS011;9738;51.654;14.238;2022-07-11T04:27:03;0.60;;;0.60;;
19209;SDS011;9738;51.654;14.238;2022-07-11T04:29:30;1.00;;;1.00;;
19209;SDS011;9738;51.654;14.238;2022-07-11T04:31:56;0.93;;;0.93;;
19209;SDS011;9738;51.654;14.238;2022-07-11T04:34:21;1.93;;;1.40;;
19209;SDS011;9738;51.654;14.238;2022-07-11T04:36:48;7.63;;;1.07;;
19209;SDS011;9738;51.654;14.238;2022-07-11T04:39:13;3.27;;;1.13;;
19209;SDS011;9738;51.654;14.238;2022-07-11T04:41:39;1.33;;;1.20;;
19209;SDS011;9738;51.654;14.238;2022-07-11T04:44:06;1.67;;;1.30;;
19209;SDS011;9738;51.654;14.238;2022-07-11T04:46:32;2.20;;;0.57;;
19209;SDS011;9738;51.654;14.238;2022-07-11T04:48:58;1.37;;;0.97;;
19209;SDS011;9738;51.654;14.238;2022-07-11T04:51:25;7.30;;;1.50;;
19209;SDS011;9738;51.654;14.238;2022-07-11T04:53:51;3.13;;;1.07;;
19209;SDS011;9738;51.654;14.238;2022-07-11T04:56:16;1.60;;;1.20;;
19209;SDS011;9738;51.654;14.238;2022-07-11T04:58:43;0.90;;;0.90;;
19209;SDS011;9738;51.654;14.238;2022-07-11T05:01:09;1.93;;;0.83;;
19209;SDS011;9738;51.654;14.238;2022-07-11T05:03:35;2.37;;;1.10;;
19209;SDS011;9738;51.654;14.238;2022-07-11T05:06:03;1.60;;;1.00;;
19209;SDS011;9738;51.654;14.238;2022-07-11T05:08:29;1.93;;;0.77;;
19209;SDS011;9738;51.654;14.238;2022-07-11T05:10:56;4.63;;;1.57;;
19209;SDS011;9738;51.654;14.238;2022-07-11T05:13:22;2.23;;;1.10;;
19209;SDS011;9738;51.654;14.238;2022-07-11T05:15:48;3.60;;;1.00;;
19209;SDS011;9738;51.654;14.238;2022-07-11T05:18:14;2.73;;;0.63;;
19209;SDS011;9738;51.654;14.238;2022-07-11T05:20:40;1.63;;;0.90;;
19209;SDS011;9738;51.654;14.238;2022-07-11T05:23:06;1.60;;;0.80;;
19209;SDS011;9738;51.654;14.238;2022-07-11T05:25:32;2.83;;;1.50;;
19209;SDS011;9738;51.654;14.238;2022-07-11T05:27:59;2.93;;;0.80;;
19209;SDS011;9738;51.654;14.238;2022-07-11T05:30:24;4.80;;;1.10;;
19209;SDS011;9738;51.654;14.238;2022-07-11T05:32:50;1.33;;;1.03;;
19209;SDS011;9738;51.654;14.238;2022-07-11T05:35:17;1.27;;;0.73;;
19209;SDS011;9738;51.654;14.238;2022-07-11T05:37:42;0.87;;;0.60;;
19209;SDS011;9738;51.654;14.238;2022-07-11T05:40:08;1.67;;;0.80;;
19209;SDS011;9738;51.654;14.238;2022-07-11T05:42:35;2.00;;;1.17;;
19209;SDS011;9738;51.654;14.238;2022-07-11T05:45:01;0.87;;;0.70;;
19209;SDS011;9738;51.654;14.238;2022-07-11T05:47:27;1.67;;;0.90;;
19209;SDS011;9738;51.654;14.238;2022-07-11T05:49:53;0.33;;;0.33;;
19209;SDS011;9738;51.654;14.238;2022-07-11T05:52:19;1.80;;;1.00;;
19209;SDS011;9738;51.654;14.238;2022-07-11T05:54:45;4.03;;;0.93;;
19209;SDS011;9738;51.654;14.238;2022-07-11T05:57:11;0.70;;;0.70;;
19209;SDS011;9738;51.654;14.238;2022-07-11T05:59:37;0.67;;;0.67;;
19209;SDS011;9738;51.654;14.238;2022-07-11T06:02:03;6.33;;;1.10;;
19209;SDS011;9738;51.654;14.238;2022-07-11T06:04:32;1.47;;;0.90;;
19209;SDS011;9738;51.654;14.238;2022-07-11T06:06:59;3.10;;;1.13;;
19209;SDS011;9738;51.654;14.238;2022-07-11T06:09:25;1.37;;;1.10;;
19209;SDS011;9738;51.654;14.238;2022-07-11T06:11:51;2.53;;;0.80;;
19209;SDS011;9738;51.654;14.238;2022-07-11T06:14:17;1.40;;;0.77;;
19209;SDS011;9738;51.654;14.238;2022-07-11T06:16:43;1.00;;;0.60;;
19209;SDS011;9738;51.654;14.238;2022-07-11T06:19:10;5.83;;;1.10;;
19209;SDS011;9738;51.654;14.238;2022-07-11T06:21:35;1.60;;;0.93;;
19209;SDS011;9738;51.654;14.238;2022-07-11T06:24:01;1.17;;;1.07;;
19209;SDS011;9738;51.654;14.238;2022-07-11T06:26:27;1.73;;;1.17;;
19209;SDS011;9738;51.654;14.238;2022-07-11T06:28:53;1.03;;;0.93;;
19209;SDS011;9738;51.654;14.238;2022-07-11T06:31:19;1.47;;;0.80;;
19209;SDS011;9738;51.654;14.238;2022-07-11T06:33:46;0.63;;;0.63;;
19209;SDS011;9738;51.654;14.238;2022-07-11T06:36:13;1.83;;;0.90;;
19209;SDS011;9738;51.654;14.238;2022-07-11T06:38:38;0.93;;;0.73;;
19209;SDS011;9738;51.654;14.238;2022-07-11T06:41:05;2.53;;;0.87;;
19209;SDS011;9738;51.654;14.238;2022-07-11T06:43:31;3.80;;;1.13;;
19209;SDS011;9738;51.654;14.238;2022-07-11T06:45:57;3.13;;;0.93;;
19209;SDS011;9738;51.654;14.238;2022-07-11T06:48:23;0.50;;;0.50;;
19209;SDS011;9738;51.654;14.238;2022-07-11T06:50:51;4.27;;;1.10;;
19209;SDS011;9738;51.654;14.238;2022-07-11T06:53:16;2.53;;;1.63;;
19209;SDS011;9738;51.654;14.238;2022-07-11T06:55:43;2.07;;;1.00;;
19209;SDS011;9738;51.654;14.238;2022-07-11T06:58:09;1.13;;;0.97;;
19209;SDS011;9738;51.654;14.238;2022-07-11T07:00:35;2.03;;;0.87;;
19209;SDS011;9738;51.654;14.238;2022-07-11T07:03:01;1.47;;;0.87;;
19209;SDS011;9738;51.654;14.238;2022-07-11T07:05:27;1.57;;;1.03;;
19209;SDS011;9738;51.654;14.238;2022-07-11T07:07:52;0.63;;;0.63;;
19209;SDS011;9738;51.654;14.238;2022-07-11T07:10:19;3.13;;;1.20;;
19209;SDS011;9738;51.654;14.238;2022-07-11T07:12:45;0.70;;;0.70;;
19209;SDS011;9738;51.654;14.238;2022-07-11T07:15:11;0.60;;;0.60;;
19209;SDS011;9738;51.654;14.238;2022-07-11T07:17:38;1.17;;;0.93;;
19209;SDS011;9738;51.654;14.238;2022-07-11T07:20:04;0.90;;;0.77;;
19209;SDS011;9738;51.654;14.238;2022-07-11T07:22:34;2.33;;;1.00;;
19209;SDS011;9738;51.654;14.238;2022-07-11T07:25:01;0.60;;;0.57;;
19209;SDS011;9738;51.654;14.238;2022-07-11T07:27:26;0.70;;;0.70;;
19209;SDS011;9738;51.654;14.238;2022-07-11T07:29:52;1.60;;;1.03;;
19209;SDS011;9738;51.654;14.238;2022-07-11T07:32:20;7.23;;;0.97;;
19209;SDS011;9738;51.654;14.238;2022-07-11T07:34:46;2.10;;;0.70;;
19209;SDS011;9738;51.654;14.238;2022-07-11T07:37:12;2.10;;;1.10;;
19209;SDS011;9738;51.654;14.238;2022-07-11T07:39:38;2.53;;;0.83;;
19209;SDS011;9738;51.654;14.238;2022-07-11T07:42:04;1.33;;;0.93;;
19209;SDS011;9738;51.654;14.238;2022-07-11T07:44:30;2.20;;;0.63;;
19209;SDS011;9738;51.654;14.238;2022-07-11T07:46:56;2.53;;;0.83;;
19209;SDS011;9738;51.654;14.238;2022-07-11T07:49:22;2.90;;;1.10;;
19209;SDS011;9738;51.654;14.238;2022-07-11T07:51:48;2.93;;;0.70;;
19209;SDS011;9738;51.654;14.238;2022-07-11T07:54:14;0.83;;;0.63;;
19209;SDS011;9738;51.654;14.238;2022-07-11T07:56:40;2.47;;;1.20;;
19209;SDS011;9738;51.654;14.238;2022-07-11T07:59:05;4.83;;;1.00;;
19209;SDS011;9738;51.654;14.238;2022-07-11T08:01:32;1.60;;;0.50;;
19209;SDS011;9738;51.654;14.238;2022-07-11T08:04:02;4.13;;;1.20;;
19209;SDS011;9738;51.654;14.238;2022-07-11T08:06:28;1.80;;;0.90;;
19209;SDS011;9738;51.654;14.238;2022-07-11T08:08:55;1.90;;;0.80;;
19209;SDS011;9738;51.654;14.238;2022-07-11T08:11:21;1.70;;;0.87;;
19209;SDS011;9738;51.654;14.238;2022-07-11T08:13:46;3.50;;;0.60;;
19209;SDS011;9738;51.654;14.238;2022-07-11T08:16:15;1.83;;;0.70;;
19209;SDS011;9738;51.654;14.238;2022-07-11T08:18:41;3.20;;;0.70;;
19209;SDS011;9738;51.654;14.238;2022-07-11T08:21:06;0.80;;;0.63;;
19209;SDS011;9738;51.654;14.238;2022-07-11T08:23:33;0.97;;;0.63;;
19209;SDS011;9738;51.654;14.238;2022-07-11T08:25:58;0.70;;;0.70;;
19209;SDS011;9738;51.654;14.238;2022-07-11T08:28:24;1.23;;;0.77;;
19209;SDS011;9738;51.654;14.238;2022-07-11T08:30:50;1.50;;;0.77;;
19209;SDS011;9738;51.654;14.238;2022-07-11T08:33:16;0.97;;;0.70;;
19209;SDS011;9738;51.654;14.238;2022-07-11T08:35:42;2.83;;;1.00;;
19209;SDS011;9738;51.654;14.238;2022-07-11T08:38:08;5.30;;;0.90;;
19209;SDS011;9738;51.654;14.238;2022-07-11T08:40:34;0.90;;;0.90;;
19209;SDS011;9738;51.654;14.238;2022-07-11T08:43:00;3.07;;;1.03;;
19209;SDS011;9738;51.654;14.238;2022-07-11T08:45:28;0.50;;;0.50;;
19209;SDS011;9738;51.654;14.238;2022-07-11T08:47:56;1.63;;;0.67;;
19209;SDS011;9738;51.654;14.238;2022-07-11T08:50:23;1.33;;;0.93;;
19209;SDS011;9738;51.654;14.238;2022-07-11T08:52:55;4.40;;;0.80;;
19209;SDS011;9738;51.654;14.238;2022-07-11T08:55:23;1.37;;;0.97;;
19209;SDS011;9738;51.654;14.238;2022-07-11T08:57:49;2.80;;;0.80;;
19209;SDS011;9738;51.654;14.238;2022-07-11T09:00:15;0.80;;;0.80;;
19209;SDS011;9738;51.654;14.238;2022-07-11T09:02:41;0.53;;;0.53;;
19209;SDS011;9738;51.654;14.238;2022-07-11T09:05:09;1.30;;;0.80;;
19209;SDS011;9738;51.654;14.238;2022-07-11T09:07:46;2.70;;;1.07;;
19209;SDS011;9738;51.654;14.238;2022-07-11T09:10:14;1.33;;;0.80;;
19209;SDS011;9738;51.654;14.238;2022-07-11T09:12:57;2.50;;;1.00;;
19209;SDS011;9738;51.654;14.238;2022-07-11T09:15:41;0.63;;;0.63;;
19209;SDS011;9738;51.654;14.238;2022-07-11T09:20:54;0.77;;;0.70;;
19209;SDS011;9738;51.654;14.238;2022-07-11T09:23:41;1.27;;;0.70;;
19209;SDS011;9738;51.654;14.238;2022-07-11T09:26:28;0.63;;;0.63;;
19209;SDS011;9738;51.654;14.238;2022-07-11T09:29:06;0.93;;;0.60;;
19209;SDS011;9738;51.654;14.238;2022-07-11T09:31:34;0.70;;;0.50;;
19209;SDS011;9738;51.654;14.238;2022-07-11T09:34:05;2.10;;;0.73;;
19209;SDS011;9738;51.654;14.238;2022-07-11T09:36:34;0.93;;;0.60;;
19209;SDS011;9738;51.654;14.238;2022-07-11T09:39:02;1.20;;;0.67;;
19209;SDS011;9738;51.654;14.238;2022-07-11T09:41:33;0.43;;;0.43;;
19209;SDS011;9738;51.654;14.238;2022-07-11T09:46:41;0.70;;;0.70;;
19209;SDS011;9738;51.654;14.238;2022-07-11T09:49:10;0.60;;;0.60;;
19209;SDS011;9738;51.654;14.238;2022-07-11T09:51:37;5.30;;;1.40;;
19209;SDS011;9738;51.654;14.238;2022-07-11T09:54:04;1.43;;;0.57;;
19209;SDS011;9738;51.654;14.238;2022-07-11T09:59:01;1.50;;;0.60;;
19209;SDS011;9738;51.654;14.238;2022-07-11T10:01:28;0.67;;;0.50;;
19209;SDS011;9738;51.654;14.238;2022-07-11T10:03:55;0.50;;;0.50;;
19209;SDS011;9738;51.654;14.238;2022-07-11T10:06:21;2.57;;;0.77;;
19209;SDS011;9738;51.654;14.238;2022-07-11T10:08:48;0.77;;;0.70;;
19209;SDS011;9738;51.654;14.238;2022-07-11T10:11:15;0.73;;;0.60;;
19209;SDS011;9738;51.654;14.238;2022-07-11T10:13:41;0.40;;;0.40;;
19209;SDS011;9738;51.654;14.238;2022-07-11T10:16:10;2.23;;;1.00;;
19209;SDS011;9738;51.654;14.238;2022-07-11T10:18:50;0.50;;;0.50;;
19209;SDS011;9738;51.654;14.238;2022-07-11T10:21:32;0.40;;;0.40;;
19209;SDS011;9738;51.654;14.238;2022-07-11T10:27:02;0.80;;;0.77;;
19209;SDS011;9738;51.654;14.238;2022-07-11T10:29:45;0.83;;;0.43;;
19209;SDS011;9738;51.654;14.238;2022-07-11T10:32:16;1.43;;;0.50;;
19209;SDS011;9738;51.654;14.238;2022-07-11T10:34:42;0.90;;;0.57;;
19209;SDS011;9738;51.654;14.238;2022-07-11T10:37:09;0.33;;;0.33;;
19209;SDS011;9738;51.654;14.238;2022-07-11T10:39:36;2.80;;;0.80;;
19209;SDS011;9738;51.654;14.238;2022-07-11T10:42:03;0.70;;;0.70;;
19209;SDS011;9738;51.654;14.238;2022-07-11T10:47:39;0.53;;;0.53;;
19209;SDS011;9738;51.654;14.238;2022-07-11T10:50:50;0.57;;;0.50;;
19209;SDS011;9738;51.654;14.238;2022-07-11T10:53:00;0.83;;;0.63;;
19209;SDS011;9738;51.654;14.238;2022-07-11T10:55:35;0.70;;;0.70;;
19209;SDS011;9738;51.654;14.238;2022-07-11T10:58:19;0.87;;;0.30;;
19209;SDS011;9738;51.654;14.238;2022-07-11T11:03:36;1.20;;;0.50;;
19209;SDS011;9738;51.654;14.238;2022-07-11T11:06:03;0.77;;;0.67;;
19209;SDS011;9738;51.654;14.238;2022-07-11T11:11:07;0.70;;;0.50;;
19209;SDS011;9738;51.654;14.238;2022-07-11T11:14:19;0.57;;;0.57;;
19209;SDS011;9738;51.654;14.238;2022-07-11T11:16:49;0.50;;;0.50;;
19209;SDS011;9738;51.654;14.238;2022-07-11T11:22:18;0.27;;;0.27;;
19209;SDS011;9738;51.654;14.238;2022-07-11T11:24:45;0.77;;;0.77;;
19209;SDS011;9738;51.654;14.238;2022-07-11T11:27:16;0.50;;;0.50;;
19209;SDS011;9738;51.654;14.238;2022-07-11T11:29:45;0.60;;;0.60;;
19209;SDS011;9738;51.654;14.238;2022-07-11T11:32:11;0.73;;;0.60;;
19209;SDS011;9738;51.654;14.238;2022-07-11T11:34:38;0.90;;;0.90;;
19209;SDS011;9738;51.654;14.238;2022-07-11T11:37:07;0.30;;;0.30;;
19209;SDS011;9738;51.654;14.238;2022-07-11T11:39:34;0.40;;;0.40;;
19209;SDS011;9738;51.654;14.238;2022-07-11T11:42:02;0.40;;;0.40;;
19209;SDS011;9738;51.654;14.238;2022-07-11T11:44:34;1.53;;;0.90;;
19209;SDS011;9738;51.654;14.238;2022-07-11T11:47:12;1.40;;;0.57;;
19209;SDS011;9738;51.654;14.238;2022-07-11T11:49:42;1.30;;;0.47;;
19209;SDS011;9738;51.654;14.238;2022-07-11T11:52:09;0.47;;;0.47;;
19209;SDS011;9738;51.654;14.238;2022-07-11T11:54:36;0.47;;;0.47;;
19209;SDS011;9738;51.654;14.238;2022-07-11T11:57:08;0.40;;;0.40;;
19209;SDS011;9738;51.654;14.238;2022-07-11T11:59:39;0.37;;;0.37;;
19209;SDS011;9738;51.654;14.238;2022-07-11T12:02:07;1.57;;;0.60;;
19209;SDS011;9738;51.654;14.238;2022-07-11T12:04:34;0.73;;;0.70;;
19209;SDS011;9738;51.654;14.238;2022-07-11T12:07:02;0.50;;;0.50;;
19209;SDS011;9738;51.654;14.238;2022-07-11T12:09:30;0.50;;;0.50;;
19209;SDS011;9738;51.654;14.238;2022-07-11T12:12:11;0.67;;;0.50;;
19209;SDS011;9738;51.654;14.238;2022-07-11T12:15:01;0.50;;;0.50;;
19209;SDS011;9738;51.654;14.238;2022-07-11T12:17:28;0.50;;;0.50;;
19209;SDS011;9738;51.654;14.238;2022-07-11T12:19:56;0.43;;;0.43;;
19209;SDS011;9738;51.654;14.238;2022-07-11T12:22:23;1.30;;;0.60;;
19209;SDS011;9738;51.654;14.238;2022-07-11T12:24:51;0.40;;;0.40;;
19209;SDS011;9738;51.654;14.238;2022-07-11T12:27:22;1.63;;;0.60;;
19209;SDS011;9738;51.654;14.238;2022-07-11T12:29:50;1.07;;;0.73;;
19209;SDS011;9738;51.654;14.238;2022-07-11T12:32:17;0.30;;;0.30;;
19209;SDS011;9738;51.654;14.238;2022-07-11T12:34:45;0.87;;;0.37;;
19209;SDS011;9738;51.654;14.238;2022-07-11T12:37:17;0.30;;;0.30;;
19209;SDS011;9738;51.654;14.238;2022-07-11T12:42:27;0.43;;;0.43;;
19209;SDS011;9738;51.654;14.238;2022-07-11T12:47:49;0.40;;;0.40;;
19209;SDS011;9738;51.654;14.238;2022-07-11T12:50:18;0.40;;;0.40;;
19209;SDS011;9738;51.654;14.238;2022-07-11T12:52:46;0.87;;;0.60;;
19209;SDS011;9738;51.654;14.238;2022-07-11T12:55:24;0.77;;;0.63;;
19209;SDS011;9738;51.654;14.238;2022-07-11T12:58:00;0.50;;;0.50;;
19209;SDS011;9738;51.654;14.238;2022-07-11T13:00:33;0.40;;;0.33;;
19209;SDS011;9738;51.654;14.238;2022-07-11T13:03:03;0.87;;;0.40;;
19209;SDS011;9738;51.654;14.238;2022-07-11T13:05:49;0.83;;;0.50;;
19209;SDS011;9738;51.654;14.238;2022-07-11T13:08:26;0.70;;;0.70;;
19209;SDS011;9738;51.654;14.238;2022-07-11T13:11:16;0.57;;;0.40;;
19209;SDS011;9738;51.654;14.238;2022-07-11T13:13:49;0.70;;;0.40;;
19209;SDS011;9738;51.654;14.238;2022-07-11T13:16:17;0.60;;;0.60;;
19209;SDS011;9738;51.654;14.238;2022-07-11T13:18:43;1.33;;;0.50;;
19209;SDS011;9738;51.654;14.238;2022-07-11T13:21:10;1.03;;;0.40;;
19209;SDS011;9738;51.654;14.238;2022-07-11T13:23:36;0.33;;;0.33;;
19209;SDS011;9738;51.654;14.238;2022-07-11T13:26:03;0.40;;;0.40;;
19209;SDS011;9738;51.654;14.238;2022-07-11T13:28:30;0.70;;;0.60;;
19209;SDS011;9738;51.654;14.238;2022-07-11T13:30:55;0.40;;;0.40;;
19209;SDS011;9738;51.654;14.238;2022-07-11T13:33:22;1.20;;;0.60;;
19209;SDS011;9738;51.654;14.238;2022-07-11T13:35:49;2.67;;;0.40;;
19209;SDS011;9738;51.654;14.238;2022-07-11T13:38:16;2.50;;;0.90;;
19209;SDS011;9738;51.654;14.238;2022-07-11T13:40:42;0.40;;;0.40;;
19209;SDS011;9738;51.654;14.238;2022-07-11T13:43:09;2.87;;;0.80;;
19209;SDS011;9738;51.654;14.238;2022-07-11T13:45:35;0.77;;;0.60;;
19209;SDS011;9738;51.654;14.238;2022-07-11T13:48:01;0.43;;;0.43;;
19209;SDS011;9738;51.654;14.238;2022-07-11T13:50:28;0.47;;;0.40;;
19209;SDS011;9738;51.654;14.238;2022-07-11T13:52:53;0.40;;;0.33;;
19209;SDS011;9738;51.654;14.238;2022-07-11T13:55:20;0.30;;;0.30;;
19209;SDS011;9738;51.654;14.238;2022-07-11T13:57:49;0.30;;;0.30;;
19209;SDS011;9738;51.654;14.238;2022-07-11T14:00:17;0.40;;;0.40;;
19209;SDS011;9738;51.654;14.238;2022-07-11T14:02:43;1.73;;;0.37;;
19209;SDS011;9738;51.654;14.238;2022-07-11T14:05:09;6.27;;;0.53;;
19209;SDS011;9738;51.654;14.238;2022-07-11T14:07:36;0.90;;;0.57;;
19209;SDS011;9738;51.654;14.238;2022-07-11T14:10:03;0.47;;;0.47;;
19209;SDS011;9738;51.654;14.238;2022-07-11T14:12:30;2.13;;;0.40;;
19209;SDS011;9738;51.654;14.238;2022-07-11T14:14:56;1.23;;;0.40;;
19209;SDS011;9738;51.654;14.238;2022-07-11T14:17:22;0.70;;;0.60;;
19209;SDS011;9738;51.654;14.238;2022-07-11T14:19:51;0.40;;;0.40;;
19209;SDS011;9738;51.654;14.238;2022-07-11T14:22:17;0.73;;;0.73;;
19209;SDS011;9738;51.654;14.238;2022-07-11T14:24:44;0.20;;;0.20;;
19209;SDS011;9738;51.654;14.238;2022-07-11T14:27:10;0.20;;;0.20;;
19209;SDS011;9738;51.654;14.238;2022-07-11T14:29:37;0.50;;;0.50;;
19209;SDS011;9738;51.654;14.238;2022-07-11T14:32:09;1.70;;;0.60;;
19209;SDS011;9738;51.654;14.238;2022-07-11T14:34:37;0.47;;;0.40;;
19209;SDS011;9738;51.654;14.238;2022-07-11T14:37:03;0.30;;;0.30;;
19209;SDS011;9738;51.654;14.238;2022-07-11T14:39:29;0.50;;;0.50;;
19209;SDS011;9738;51.654;14.238;2022-07-11T14:41:55;0.40;;;0.30;;
19209;SDS011;9738;51.654;14.238;2022-07-11T14:44:21;0.47;;;0.47;;
19209;SDS011;9738;51.654;14.238;2022-07-11T14:46:47;0.30;;;0.30;;
19209;SDS011;9738;51.654;14.238;2022-07-11T14:49:13;2.43;;;0.67;;
19209;SDS011;9738;51.654;14.238;2022-07-11T14:51:39;2.33;;;0.50;;
19209;SDS011;9738;51.654;14.238;2022-07-11T14:54:05;2.00;;;0.30;;
19209;SDS011;9738;51.654;14.238;2022-07-11T14:56:32;0.30;;;0.30;;
19209;SDS011;9738;51.654;14.238;2022-07-11T14:58:57;0.40;;;0.40;;
19209;SDS011;9738;51.654;14.238;2022-07-11T15:01:23;0.43;;;0.40;;
19209;SDS011;9738;51.654;14.238;2022-07-11T15:03:49;0.70;;;0.40;;
19209;SDS011;9738;51.654;14.238;2022-07-11T15:06:17;0.30;;;0.30;;
19209;SDS011;9738;51.654;14.238;2022-07-11T15:08:43;0.90;;;0.80;;
19209;SDS011;9738;51.654;14.238;2022-07-11T15:11:28;0.20;;;0.20;;
19209;SDS011;9738;51.654;14.238;2022-07-11T15:14:12;1.70;;;0.27;;
19209;SDS011;9738;51.654;14.238;2022-07-11T15:16:41;0.40;;;0.40;;
19209;SDS011;9738;51.654;14.238;2022-07-11T15:19:07;0.43;;;0.43;;